sensor_id;sensor_type;location;lat;lon;timestamp;temperature;humidity
5578;DHT22;2811;51.900;10.734;2022-10-30T00:00:26;13.70;99.90
5578;DHT22;2811;51.900;10.734;2022-10-30T00:02:53;13.60;99.90
5578;DHT22;2811;51.900;10.734;2022-10-30T00:05:20;13.40;99.90
5578;DHT22;2811;51.900;10.734;2022-10-30T00:07:47;13.50;99.90
5578;DHT22;2811;51.900;10.734;2022-10-30T00:10:14;13.50;99.90
5578;DHT22;2811;51.900;10.734;2022-10-30T00:12:43;13.40;99.90
5578;DHT22;2811;51.900;10.734;2022-10-30T00:15:10;13.40;99.90
5578;DHT22;2811;51.900;10.734;2022-10-30T00:17:37;13.60;99.90
5578;DHT22;2811;51.900;10.734;2022-10-30T00:20:05;13.70;99.90
5578;DHT22;2811;51.900;10.734;2022-10-30T00:22:32;13.60;99.90
5578;DHT22;2811;51.900;10.734;2022-10-30T00:24:58;13.70;99.90
5578;DHT22;2811;51.900;10.734;2022-10-30T00:27:26;13.60;99.90
5578;DHT22;2811;51.900;10.734;2022-10-30T00:29:54;13.60;99.90
5578;DHT22;2811;51.900;10.734;2022-10-30T00:32:21;13.60;99.90
5578;DHT22;2811;51.900;10.734;2022-10-30T00:34:47;13.70;99.90
5578;DHT22;2811;51.900;10.734;2022-10-30T00:37:14;13.70;99.90
5578;DHT22;2811;51.900;10.734;2022-10-30T00:39:41;13.70;99.90
5578;DHT22;2811;51.900;10.734;2022-10-30T00:42:10;13.80;99.90
5578;DHT22;2811;51.900;10.734;2022-10-30T00:44:44;13.70;99.90
5578;DHT22;2811;51.900;10.734;2022-10-30T00:47:17;13.80;99.90
5578;DHT22;2811;51.900;10.734;2022-10-30T00:49:53;13.90;99.90
5578;DHT22;2811;51.900;10.734;2022-10-30T00:52:21;14.10;99.90
5578;DHT22;2811;51.900;10.734;2022-10-30T00:54:50;14.10;99.90
5578;DHT22;2811;51.900;10.734;2022-10-30T00:57:18;14.10;99.90
5578;DHT22;2811;51.900;10.734;2022-10-30T00:59:45;14.10;99.90
5578;DHT22;2811;51.900;10.734;2022-10-30T01:02:14;14.00;99.90
5578;DHT22;2811;51.900;10.734;2022-10-30T01:04:43;14.10;99.90
5578;DHT22;2811;51.900;10.734;2022-10-30T01:07:13;14.10;99.90
5578;DHT22;2811;51.900;10.734;2022-10-30T01:09:41;14.20;99.90
5578;DHT22;2811;51.900;10.734;2022-10-30T01:12:08;14.40;99.90
5578;DHT22;2811;51.900;10.734;2022-10-30T01:14:37;14.40;99.90
5578;DHT22;2811;51.900;10.734;2022-10-30T01:17:36;14.50;99.90
5578;DHT22;2811;51.900;10.734;2022-10-30T01:20:18;14.50;99.90
5578;DHT22;2811;51.900;10.734;2022-10-30T01:22:55;14.50;99.90
5578;DHT22;2811;51.900;10.734;2022-10-30T01:25:36;14.60;99.90
5578;DHT22;2811;51.900;10.734;2022-10-30T01:28:14;14.80;99.90
5578;DHT22;2811;51.900;10.734;2022-10-30T01:30:54;14.70;99.90
5578;DHT22;2811;51.900;10.734;2022-10-30T01:33:32;14.70;99.90
5578;DHT22;2811;51.900;10.734;2022-10-30T01:36:06;14.60;99.90
5578;DHT22;2811;51.900;10.734;2022-10-30T01:38:38;14.60;99.90
5578;DHT22;2811;51.900;10.734;2022-10-30T01:41:05;14.70;99.90
5578;DHT22;2811;51.900;10.734;2022-10-30T01:43:33;14.80;99.90
5578;DHT22;2811;51.900;10.734;2022-10-30T01:46:15;14.70;99.90
5578;DHT22;2811;51.900;10.734;2022-10-30T01:52:17;14.60;99.90
5578;DHT22;2811;51.900;10.734;2022-10-30T01:54:51;14.50;99.90
5578;DHT22;2811;51.900;10.734;2022-10-30T01:57:26;14.50;99.90
5578;DHT22;2811;51.900;10.734;2022-10-30T02:00:00;14.40;99.90
5578;DHT22;2811;51.900;10.734;2022-10-30T02:02:28;14.40;99.90
5578;DHT22;2811;51.900;10.734;2022-10-30T02:04:59;14.50;99.90
5578;DHT22;2811;51.900;10.734;2022-10-30T02:07:26;14.50;99.90
5578;DHT22;2811;51.900;10.734;2022-10-30T02:09:53;14.50;99.90
5578;DHT22;2811;51.900;10.734;2022-10-30T02:12:21;14.60;99.90
5578;DHT22;2811;51.900;10.734;2022-10-30T02:14:52;14.80;99.90
5578;DHT22;2811;51.900;10.734;2022-10-30T02:17:20;14.80;99.90
5578;DHT22;2811;51.900;10.734;2022-10-30T02:19:47;14.80;99.90
5578;DHT22;2811;51.900;10.734;2022-10-30T02:22:16;15.00;99.90
5578;DHT22;2811;51.900;10.734;2022-10-30T02:24:43;15.60;99.90
5578;DHT22;2811;51.900;10.734;2022-10-30T02:27:10;15.70;99.90
5578;DHT22;2811;51.900;10.734;2022-10-30T02:29:37;15.80;99.90
5578;DHT22;2811;51.900;10.734;2022-10-30T02:32:04;15.90;99.90
5578;DHT22;2811;51.900;10.734;2022-10-30T02:34:30;15.90;99.90
5578;DHT22;2811;51.900;10.734;2022-10-30T02:36:57;15.90;99.90
5578;DHT22;2811;51.900;10.734;2022-10-30T02:39:25;15.90;99.90
5578;DHT22;2811;51.900;10.734;2022-10-30T02:41:52;16.00;99.90
5578;DHT22;2811;51.900;10.734;2022-10-30T02:44:19;16.00;99.90
5578;DHT22;2811;51.900;10.734;2022-10-30T02:46:46;16.10;99.90
5578;DHT22;2811;51.900;10.734;2022-10-30T02:49:12;16.10;99.90
5578;DHT22;2811;51.900;10.734;2022-10-30T02:51:39;16.10;99.90
5578;DHT22;2811;51.900;10.734;2022-10-30T02:54:06;16.00;99.90
5578;DHT22;2811;51.900;10.734;2022-10-30T02:56:34;16.00;99.90
5578;DHT22;2811;51.900;10.734;2022-10-30T02:59:01;15.90;99.90
5578;DHT22;2811;51.900;10.734;2022-10-30T03:01:27;15.80;99.90
5578;DHT22;2811;51.900;10.734;2022-10-30T03:03:54;15.80;99.90
5578;DHT22;2811;51.900;10.734;2022-10-30T03:06:21;15.80;99.90
5578;DHT22;2811;51.900;10.734;2022-10-30T03:08:48;15.70;99.90
5578;DHT22;2811;51.900;10.734;2022-10-30T03:11:16;15.60;99.90
5578;DHT22;2811;51.900;10.734;2022-10-30T03:13:45;15.60;99.90
5578;DHT22;2811;51.900;10.734;2022-10-30T03:16:14;15.60;99.90
5578;DHT22;2811;51.900;10.734;2022-10-30T03:18:43;15.60;99.90
5578;DHT22;2811;51.900;10.734;2022-10-30T03:21:11;15.70;99.90
5578;DHT22;2811;51.900;10.734;2022-10-30T03:23:38;15.80;99.90
5578;DHT22;2811;51.900;10.734;2022-10-30T03:26:05;15.90;99.90
5578;DHT22;2811;51.900;10.734;2022-10-30T03:28:32;15.90;99.90
5578;DHT22;2811;51.900;10.734;2022-10-30T03:31:02;15.80;99.90
5578;DHT22;2811;51.900;10.734;2022-10-30T03:33:29;15.60;99.90
5578;DHT22;2811;51.900;10.734;2022-10-30T03:35:56;15.60;99.90
5578;DHT22;2811;51.900;10.734;2022-10-30T03:38:23;15.50;99.90
5578;DHT22;2811;51.900;10.734;2022-10-30T03:40:50;15.40;99.90
5578;DHT22;2811;51.900;10.734;2022-10-30T03:43:17;15.40;99.90
5578;DHT22;2811;51.900;10.734;2022-10-30T03:45:48;15.40;99.90
5578;DHT22;2811;51.900;10.734;2022-10-30T03:48:17;15.30;99.90
5578;DHT22;2811;51.900;10.734;2022-10-30T03:50:45;15.40;99.90
5578;DHT22;2811;51.900;10.734;2022-10-30T03:53:12;15.40;99.90
5578;DHT22;2811;51.900;10.734;2022-10-30T03:55:39;15.30;99.90
5578;DHT22;2811;51.900;10.734;2022-10-30T03:58:06;15.30;99.90
5578;DHT22;2811;51.900;10.734;2022-10-30T04:00:34;15.30;99.90
5578;DHT22;2811;51.900;10.734;2022-10-30T04:03:01;15.20;99.90
5578;DHT22;2811;51.900;10.734;2022-10-30T04:05:33;15.30;99.90
5578;DHT22;2811;51.900;10.734;2022-10-30T04:08:02;15.20;99.90
5578;DHT22;2811;51.900;10.734;2022-10-30T04:10:28;15.20;99.90
5578;DHT22;2811;51.900;10.734;2022-10-30T04:12:58;15.20;99.90
5578;DHT22;2811;51.900;10.734;2022-10-30T04:15:25;15.30;99.90
5578;DHT22;2811;51.900;10.734;2022-10-30T04:17:52;15.30;99.90
5578;DHT22;2811;51.900;10.734;2022-10-30T04:20:20;15.20;99.90
5578;DHT22;2811;51.900;10.734;2022-10-30T04:22:54;15.20;99.90
5578;DHT22;2811;51.900;10.734;2022-10-30T04:25:21;15.10;99.90
5578;DHT22;2811;51.900;10.734;2022-10-30T04:27:48;15.40;99.90
5578;DHT22;2811;51.900;10.734;2022-10-30T04:30:17;15.70;99.90
5578;DHT22;2811;51.900;10.734;2022-10-30T04:32:45;16.50;99.90
5578;DHT22;2811;51.900;10.734;2022-10-30T04:35:13;16.80;99.90
5578;DHT22;2811;51.900;10.734;2022-10-30T04:37:40;16.80;99.90
5578;DHT22;2811;51.900;10.734;2022-10-30T04:40:09;16.80;99.90
5578;DHT22;2811;51.900;10.734;2022-10-30T04:42:36;16.80;99.90
5578;DHT22;2811;51.900;10.734;2022-10-30T04:45:03;16.70;99.90
5578;DHT22;2811;51.900;10.734;2022-10-30T04:47:30;16.60;99.90
5578;DHT22;2811;51.900;10.734;2022-10-30T04:49:56;16.50;99.90
5578;DHT22;2811;51.900;10.734;2022-10-30T04:52:29;16.40;99.90
5578;DHT22;2811;51.900;10.734;2022-10-30T04:54:56;16.30;99.90
5578;DHT22;2811;51.900;10.734;2022-10-30T04:57:24;16.10;99.90
5578;DHT22;2811;51.900;10.734;2022-10-30T04:59:51;15.90;99.90
5578;DHT22;2811;51.900;10.734;2022-10-30T05:02:17;15.80;99.90
5578;DHT22;2811;51.900;10.734;2022-10-30T05:04:45;15.80;99.90
5578;DHT22;2811;51.900;10.734;2022-10-30T05:07:11;15.70;99.90
5578;DHT22;2811;51.900;10.734;2022-10-30T05:09:38;15.60;99.90
5578;DHT22;2811;51.900;10.734;2022-10-30T05:12:06;15.50;99.90
5578;DHT22;2811;51.900;10.734;2022-10-30T05:14:34;15.40;99.90
5578;DHT22;2811;51.900;10.734;2022-10-30T05:17:01;15.20;99.90
5578;DHT22;2811;51.900;10.734;2022-10-30T05:19:27;15.40;99.90
5578;DHT22;2811;51.900;10.734;2022-10-30T05:21:54;15.10;99.90
5578;DHT22;2811;51.900;10.734;2022-10-30T05:24:21;15.00;99.90
5578;DHT22;2811;51.900;10.734;2022-10-30T05:26:48;14.90;99.90
5578;DHT22;2811;51.900;10.734;2022-10-30T05:29:14;14.90;99.90
5578;DHT22;2811;51.900;10.734;2022-10-30T05:31:42;14.90;99.90
5578;DHT22;2811;51.900;10.734;2022-10-30T05:34:09;14.90;99.90
5578;DHT22;2811;51.900;10.734;2022-10-30T05:36:36;14.80;99.90
5578;DHT22;2811;51.900;10.734;2022-10-30T05:39:03;14.70;99.90
5578;DHT22;2811;51.900;10.734;2022-10-30T05:41:30;14.80;99.90
5578;DHT22;2811;51.900;10.734;2022-10-30T05:43:56;14.70;99.90
5578;DHT22;2811;51.900;10.734;2022-10-30T05:46:23;14.80;99.90
5578;DHT22;2811;51.900;10.734;2022-10-30T05:48:51;14.60;99.90
5578;DHT22;2811;51.900;10.734;2022-10-30T05:51:18;14.40;99.90
5578;DHT22;2811;51.900;10.734;2022-10-30T05:53:46;14.40;99.90
5578;DHT22;2811;51.900;10.734;2022-10-30T05:56:13;14.20;99.90
5578;DHT22;2811;51.900;10.734;2022-10-30T05:58:40;14.10;99.90
5578;DHT22;2811;51.900;10.734;2022-10-30T06:01:07;14.10;99.90
5578;DHT22;2811;51.900;10.734;2022-10-30T06:03:34;13.90;99.90
5578;DHT22;2811;51.900;10.734;2022-10-30T06:06:02;13.80;99.90
5578;DHT22;2811;51.900;10.734;2022-10-30T06:08:29;13.80;99.90
5578;DHT22;2811;51.900;10.734;2022-10-30T06:10:56;13.80;99.90
5578;DHT22;2811;51.900;10.734;2022-10-30T06:13:22;13.80;99.90
5578;DHT22;2811;51.900;10.734;2022-10-30T06:15:49;13.60;99.90
5578;DHT22;2811;51.900;10.734;2022-10-30T06:18:16;13.70;99.90
5578;DHT22;2811;51.900;10.734;2022-10-30T06:20:42;13.60;99.90
5578;DHT22;2811;51.900;10.734;2022-10-30T06:23:10;13.60;99.90
5578;DHT22;2811;51.900;10.734;2022-10-30T06:25:37;13.60;99.90
5578;DHT22;2811;51.900;10.734;2022-10-30T06:28:05;13.70;99.90
5578;DHT22;2811;51.900;10.734;2022-10-30T06:30:31;13.80;99.90
5578;DHT22;2811;51.900;10.734;2022-10-30T06:32:59;13.80;99.90
5578;DHT22;2811;51.900;10.734;2022-10-30T06:35:26;13.90;99.90
5578;DHT22;2811;51.900;10.734;2022-10-30T06:37:54;14.00;99.90
5578;DHT22;2811;51.900;10.734;2022-10-30T06:40:24;14.00;99.90
5578;DHT22;2811;51.900;10.734;2022-10-30T06:42:52;14.00;99.90
5578;DHT22;2811;51.900;10.734;2022-10-30T06:45:20;14.00;99.90
5578;DHT22;2811;51.900;10.734;2022-10-30T06:47:47;14.00;99.90
5578;DHT22;2811;51.900;10.734;2022-10-30T06:50:16;14.00;99.90
5578;DHT22;2811;51.900;10.734;2022-10-30T06:52:43;14.10;99.90
5578;DHT22;2811;51.900;10.734;2022-10-30T06:55:11;14.10;99.90
5578;DHT22;2811;51.900;10.734;2022-10-30T06:57:39;14.10;99.90
5578;DHT22;2811;51.900;10.734;2022-10-30T07:00:07;14.00;99.90
5578;DHT22;2811;51.900;10.734;2022-10-30T07:02:34;14.10;99.90
5578;DHT22;2811;51.900;10.734;2022-10-30T07:05:01;14.20;99.90
5578;DHT22;2811;51.900;10.734;2022-10-30T07:07:28;14.30;99.90
5578;DHT22;2811;51.900;10.734;2022-10-30T07:09:55;14.30;99.90
5578;DHT22;2811;51.900;10.734;2022-10-30T07:12:22;14.40;99.90
5578;DHT22;2811;51.900;10.734;2022-10-30T07:14:50;14.50;99.90
5578;DHT22;2811;51.900;10.734;2022-10-30T07:17:16;14.50;99.90
5578;DHT22;2811;51.900;10.734;2022-10-30T07:19:43;14.90;99.90
5578;DHT22;2811;51.900;10.734;2022-10-30T07:22:10;15.10;99.90
5578;DHT22;2811;51.900;10.734;2022-10-30T07:24:37;15.60;99.90
5578;DHT22;2811;51.900;10.734;2022-10-30T07:27:03;15.80;99.90
5578;DHT22;2811;51.900;10.734;2022-10-30T07:29:30;16.00;99.90
5578;DHT22;2811;51.900;10.734;2022-10-30T07:31:58;16.20;99.90
5578;DHT22;2811;51.900;10.734;2022-10-30T07:34:25;16.40;99.90
5578;DHT22;2811;51.900;10.734;2022-10-30T07:36:52;16.50;99.90
5578;DHT22;2811;51.900;10.734;2022-10-30T07:39:19;16.60;99.90
5578;DHT22;2811;51.900;10.734;2022-10-30T07:41:47;16.70;99.90
5578;DHT22;2811;51.900;10.734;2022-10-30T07:44:14;16.70;99.90
5578;DHT22;2811;51.900;10.734;2022-10-30T07:46:41;16.70;99.90
5578;DHT22;2811;51.900;10.734;2022-10-30T07:49:09;16.70;99.90
5578;DHT22;2811;51.900;10.734;2022-10-30T07:51:36;16.40;99.90
5578;DHT22;2811;51.900;10.734;2022-10-30T07:54:02;16.40;99.90
5578;DHT22;2811;51.900;10.734;2022-10-30T07:56:29;16.40;99.90
5578;DHT22;2811;51.900;10.734;2022-10-30T07:58:56;16.50;99.90
5578;DHT22;2811;51.900;10.734;2022-10-30T08:01:23;16.60;99.90
5578;DHT22;2811;51.900;10.734;2022-10-30T08:03:49;16.70;99.90
5578;DHT22;2811;51.900;10.734;2022-10-30T08:06:17;17.00;99.90
5578;DHT22;2811;51.900;10.734;2022-10-30T08:08:44;17.30;99.90
5578;DHT22;2811;51.900;10.734;2022-10-30T08:11:11;17.60;99.90
5578;DHT22;2811;51.900;10.734;2022-10-30T08:13:38;17.80;99.90
5578;DHT22;2811;51.900;10.734;2022-10-30T08:16:05;17.60;99.90
5578;DHT22;2811;51.900;10.734;2022-10-30T08:18:32;17.70;99.90
5578;DHT22;2811;51.900;10.734;2022-10-30T08:20:58;17.90;99.90
5578;DHT22;2811;51.900;10.734;2022-10-30T08:23:26;18.20;99.90
5578;DHT22;2811;51.900;10.734;2022-10-30T08:25:56;18.50;99.90
5578;DHT22;2811;51.900;10.734;2022-10-30T08:28:24;18.80;99.90
5578;DHT22;2811;51.900;10.734;2022-10-30T08:30:51;19.00;99.90
5578;DHT22;2811;51.900;10.734;2022-10-30T08:33:18;19.10;99.90
5578;DHT22;2811;51.900;10.734;2022-10-30T08:35:48;19.10;99.90
5578;DHT22;2811;51.900;10.734;2022-10-30T08:38:16;19.10;99.90
5578;DHT22;2811;51.900;10.734;2022-10-30T08:40:44;19.20;99.90
5578;DHT22;2811;51.900;10.734;2022-10-30T08:43:11;19.40;99.90
5578;DHT22;2811;51.900;10.734;2022-10-30T08:45:39;19.30;99.90
5578;DHT22;2811;51.900;10.734;2022-10-30T08:48:08;19.60;99.90
5578;DHT22;2811;51.900;10.734;2022-10-30T08:50:35;19.70;99.90
5578;DHT22;2811;51.900;10.734;2022-10-30T08:53:03;19.80;99.90
5578;DHT22;2811;51.900;10.734;2022-10-30T08:55:31;19.80;99.90
5578;DHT22;2811;51.900;10.734;2022-10-30T08:57:59;19.70;99.90
5578;DHT22;2811;51.900;10.734;2022-10-30T09:00:27;19.90;99.90
5578;DHT22;2811;51.900;10.734;2022-10-30T09:02:54;20.00;99.90
5578;DHT22;2811;51.900;10.734;2022-10-30T09:05:20;20.20;99.90
5578;DHT22;2811;51.900;10.734;2022-10-30T09:07:47;20.30;99.90
5578;DHT22;2811;51.900;10.734;2022-10-30T09:10:14;20.50;99.90
5578;DHT22;2811;51.900;10.734;2022-10-30T09:12:41;20.50;99.90
5578;DHT22;2811;51.900;10.734;2022-10-30T09:15:09;20.50;99.90
5578;DHT22;2811;51.900;10.734;2022-10-30T09:17:36;20.60;99.90
5578;DHT22;2811;51.900;10.734;2022-10-30T09:20:04;20.80;99.90
5578;DHT22;2811;51.900;10.734;2022-10-30T09:22:31;21.00;99.90
5578;DHT22;2811;51.900;10.734;2022-10-30T09:24:57;21.50;99.90
5578;DHT22;2811;51.900;10.734;2022-10-30T09:27:24;21.20;99.90
5578;DHT22;2811;51.900;10.734;2022-10-30T09:29:52;21.70;99.90
5578;DHT22;2811;51.900;10.734;2022-10-30T09:32:20;21.40;99.90
5578;DHT22;2811;51.900;10.734;2022-10-30T09:34:47;21.80;99.90
5578;DHT22;2811;51.900;10.734;2022-10-30T09:37:13;21.40;99.90
5578;DHT22;2811;51.900;10.734;2022-10-30T09:39:40;21.60;99.90
5578;DHT22;2811;51.900;10.734;2022-10-30T09:42:31;21.70;99.90
5578;DHT22;2811;51.900;10.734;2022-10-30T09:48:10;21.70;99.90
5578;DHT22;2811;51.900;10.734;2022-10-30T09:50:45;21.70;99.90
5578;DHT22;2811;51.900;10.734;2022-10-30T09:53:24;21.70;99.90
5578;DHT22;2811;51.900;10.734;2022-10-30T09:56:02;21.80;99.90
5578;DHT22;2811;51.900;10.734;2022-10-30T09:58:34;21.50;99.90
5578;DHT22;2811;51.900;10.734;2022-10-30T10:01:11;21.70;99.90
5578;DHT22;2811;51.900;10.734;2022-10-30T10:03:54;21.60;99.90
5578;DHT22;2811;51.900;10.734;2022-10-30T10:06:23;21.50;99.90
5578;DHT22;2811;51.900;10.734;2022-10-30T10:08:55;22.10;99.90
5578;DHT22;2811;51.900;10.734;2022-10-30T10:11:28;21.80;99.90
5578;DHT22;2811;51.900;10.734;2022-10-30T10:13:57;21.70;99.90
5578;DHT22;2811;51.900;10.734;2022-10-30T10:16:29;21.80;99.90
5578;DHT22;2811;51.900;10.734;2022-10-30T10:19:01;21.60;99.90
5578;DHT22;2811;51.900;10.734;2022-10-30T10:21:38;21.60;99.90
5578;DHT22;2811;51.900;10.734;2022-10-30T10:24:14;21.90;99.90
5578;DHT22;2811;51.900;10.734;2022-10-30T10:26:47;21.90;99.90
5578;DHT22;2811;51.900;10.734;2022-10-30T10:29:32;22.20;99.90
5578;DHT22;2811;51.900;10.734;2022-10-30T10:32:16;22.10;99.90
5578;DHT22;2811;51.900;10.734;2022-10-30T10:34:56;22.20;99.90
5578;DHT22;2811;51.900;10.734;2022-10-30T10:37:33;22.00;99.90
5578;DHT22;2811;51.900;10.734;2022-10-30T10:40:15;22.10;99.90
5578;DHT22;2811;51.900;10.734;2022-10-30T10:42:56;22.10;99.90
5578;DHT22;2811;51.900;10.734;2022-10-30T10:45:31;22.10;99.90
5578;DHT22;2811;51.900;10.734;2022-10-30T10:48:15;22.10;99.90
5578;DHT22;2811;51.900;10.734;2022-10-30T10:50:48;22.10;99.90
5578;DHT22;2811;51.900;10.734;2022-10-30T10:53:20;22.20;99.90
5578;DHT22;2811;51.900;10.734;2022-10-30T10:55:50;22.20;99.90
5578;DHT22;2811;51.900;10.734;2022-10-30T10:58:26;22.10;99.90
5578;DHT22;2811;51.900;10.734;2022-10-30T11:00:55;22.30;99.90
5578;DHT22;2811;51.900;10.734;2022-10-30T11:03:28;22.20;99.90
5578;DHT22;2811;51.900;10.734;2022-10-30T11:06:03;22.30;99.90
5578;DHT22;2811;51.900;10.734;2022-10-30T11:08:33;22.20;99.90
5578;DHT22;2811;51.900;10.734;2022-10-30T11:11:02;22.50;99.90
5578;DHT22;2811;51.900;10.734;2022-10-30T11:13:30;22.20;99.90
5578;DHT22;2811;51.900;10.734;2022-10-30T11:16:03;22.20;99.90
5578;DHT22;2811;51.900;10.734;2022-10-30T11:18:33;22.30;99.90
5578;DHT22;2811;51.900;10.734;2022-10-30T11:21:04;22.70;99.90
5578;DHT22;2811;51.900;10.734;2022-10-30T11:23:36;22.40;99.90
5578;DHT22;2811;51.900;10.734;2022-10-30T11:28:48;22.60;99.90
5578;DHT22;2811;51.900;10.734;2022-10-30T11:31:20;22.70;99.90
5578;DHT22;2811;51.900;10.734;2022-10-30T11:33:48;22.80;99.90
5578;DHT22;2811;51.900;10.734;2022-10-30T11:36:18;23.00;99.90
5578;DHT22;2811;51.900;10.734;2022-10-30T11:38:47;23.00;99.90
5578;DHT22;2811;51.900;10.734;2022-10-30T11:41:14;22.80;99.90
5578;DHT22;2811;51.900;10.734;2022-10-30T11:43:42;23.30;99.90
5578;DHT22;2811;51.900;10.734;2022-10-30T11:46:14;23.20;99.90
5578;DHT22;2811;51.900;10.734;2022-10-30T11:48:45;23.00;99.90
5578;DHT22;2811;51.900;10.734;2022-10-30T11:51:30;23.00;99.90
5578;DHT22;2811;51.900;10.734;2022-10-30T11:53:58;23.20;99.90
5578;DHT22;2811;51.900;10.734;2022-10-30T11:56:33;23.20;99.90
5578;DHT22;2811;51.900;10.734;2022-10-30T11:59:02;23.30;99.90
5578;DHT22;2811;51.900;10.734;2022-10-30T12:01:30;23.30;99.90
5578;DHT22;2811;51.900;10.734;2022-10-30T12:04:13;23.50;99.90
5578;DHT22;2811;51.900;10.734;2022-10-30T12:06:42;23.70;99.90
5578;DHT22;2811;51.900;10.734;2022-10-30T12:09:13;23.80;99.90
5578;DHT22;2811;51.900;10.734;2022-10-30T12:11:45;23.70;99.90
5578;DHT22;2811;51.900;10.734;2022-10-30T12:14:18;23.70;99.90
5578;DHT22;2811;51.900;10.734;2022-10-30T12:16:46;23.50;99.90
5578;DHT22;2811;51.900;10.734;2022-10-30T12:19:14;23.10;99.90
5578;DHT22;2811;51.900;10.734;2022-10-30T12:21:46;23.10;99.90
5578;DHT22;2811;51.900;10.734;2022-10-30T12:24:17;23.20;99.90
5578;DHT22;2811;51.900;10.734;2022-10-30T12:26:46;23.20;99.90
5578;DHT22;2811;51.900;10.734;2022-10-30T12:29:16;23.20;99.90
5578;DHT22;2811;51.900;10.734;2022-10-30T12:31:50;23.30;99.90
5578;DHT22;2811;51.900;10.734;2022-10-30T12:34:35;23.20;99.90
5578;DHT22;2811;51.900;10.734;2022-10-30T12:37:10;23.40;99.90
5578;DHT22;2811;51.900;10.734;2022-10-30T12:39:52;23.60;99.90
5578;DHT22;2811;51.900;10.734;2022-10-30T12:42:21;23.40;99.90
5578;DHT22;2811;51.900;10.734;2022-10-30T12:44:54;23.20;99.90
5578;DHT22;2811;51.900;10.734;2022-10-30T12:47:28;23.20;99.90
5578;DHT22;2811;51.900;10.734;2022-10-30T12:49:59;23.10;99.90
5578;DHT22;2811;51.900;10.734;2022-10-30T12:52:33;23.30;99.90
5578;DHT22;2811;51.900;10.734;2022-10-30T12:55:04;23.20;99.90
5578;DHT22;2811;51.900;10.734;2022-10-30T12:57:37;23.30;99.90
5578;DHT22;2811;51.900;10.734;2022-10-30T13:00:10;23.40;99.90
5578;DHT22;2811;51.900;10.734;2022-10-30T13:02:44;23.30;99.90
5578;DHT22;2811;51.900;10.734;2022-10-30T13:05:23;23.20;99.90
5578;DHT22;2811;51.900;10.734;2022-10-30T13:08:00;23.30;99.90
5578;DHT22;2811;51.900;10.734;2022-10-30T13:10:31;23.20;99.90
5578;DHT22;2811;51.900;10.734;2022-10-30T13:13:03;23.20;99.90
5578;DHT22;2811;51.900;10.734;2022-10-30T13:15:34;23.10;99.90
5578;DHT22;2811;51.900;10.734;2022-10-30T13:18:13;23.20;99.90
5578;DHT22;2811;51.900;10.734;2022-10-30T13:20:40;22.80;99.90
5578;DHT22;2811;51.900;10.734;2022-10-30T13:23:14;22.80;99.90
5578;DHT22;2811;51.900;10.734;2022-10-30T13:25:59;22.80;99.90
5578;DHT22;2811;51.900;10.734;2022-10-30T13:28:32;22.80;99.90
5578;DHT22;2811;51.900;10.734;2022-10-30T13:31:11;22.60;99.90
5578;DHT22;2811;51.900;10.734;2022-10-30T13:33:45;22.60;99.90
5578;DHT22;2811;51.900;10.734;2022-10-30T13:36:20;22.60;99.90
5578;DHT22;2811;51.900;10.734;2022-10-30T13:38:54;22.50;99.90
5578;DHT22;2811;51.900;10.734;2022-10-30T13:41:29;22.80;99.90
5578;DHT22;2811;51.900;10.734;2022-10-30T13:44:05;22.60;99.90
5578;DHT22;2811;51.900;10.734;2022-10-30T13:46:55;22.50;99.90
5578;DHT22;2811;51.900;10.734;2022-10-30T13:49:44;22.50;99.90
5578;DHT22;2811;51.900;10.734;2022-10-30T13:52:16;22.50;99.90
5578;DHT22;2811;51.900;10.734;2022-10-30T13:54:52;22.40;99.90
5578;DHT22;2811;51.900;10.734;2022-10-30T13:57:26;22.30;99.90
5578;DHT22;2811;51.900;10.734;2022-10-30T14:00:04;22.30;99.90
5578;DHT22;2811;51.900;10.734;2022-10-30T14:02:41;22.20;99.90
5578;DHT22;2811;51.900;10.734;2022-10-30T14:05:18;22.20;99.90
5578;DHT22;2811;51.900;10.734;2022-10-30T14:07:52;22.10;99.90
5578;DHT22;2811;51.900;10.734;2022-10-30T14:10:42;22.00;99.90
5578;DHT22;2811;51.900;10.734;2022-10-30T14:13:24;21.90;99.90
5578;DHT22;2811;51.900;10.734;2022-10-30T14:15:54;21.90;99.90
5578;DHT22;2811;51.900;10.734;2022-10-30T14:18:30;21.80;99.90
5578;DHT22;2811;51.900;10.734;2022-10-30T14:20:58;22.20;99.90
5578;DHT22;2811;51.900;10.734;2022-10-30T14:23:46;21.80;99.90
5578;DHT22;2811;51.900;10.734;2022-10-30T14:26:17;21.70;99.90
5578;DHT22;2811;51.900;10.734;2022-10-30T14:28:45;21.70;99.90
5578;DHT22;2811;51.900;10.734;2022-10-30T14:31:14;21.60;99.90
5578;DHT22;2811;51.900;10.734;2022-10-30T14:33:47;21.60;99.90
5578;DHT22;2811;51.900;10.734;2022-10-30T14:36:20;21.60;99.90
5578;DHT22;2811;51.900;10.734;2022-10-30T14:38:58;21.40;99.90
5578;DHT22;2811;51.900;10.734;2022-10-30T14:41:42;21.40;99.90
5578;DHT22;2811;51.900;10.734;2022-10-30T14:44:23;21.50;99.90
5578;DHT22;2811;51.900;10.734;2022-10-30T14:47:02;21.10;99.90
5578;DHT22;2811;51.900;10.734;2022-10-30T14:49:42;20.80;99.90
5578;DHT22;2811;51.900;10.734;2022-10-30T14:52:27;20.90;99.90
5578;DHT22;2811;51.900;10.734;2022-10-30T14:55:07;20.50;99.90
5578;DHT22;2811;51.900;10.734;2022-10-30T14:57:45;20.60;99.90
5578;DHT22;2811;51.900;10.734;2022-10-30T15:00:37;20.50;99.90
5578;DHT22;2811;51.900;10.734;2022-10-30T15:03:08;20.30;99.90
5578;DHT22;2811;51.900;10.734;2022-10-30T15:05:43;20.20;99.90
5578;DHT22;2811;51.900;10.734;2022-10-30T15:08:26;20.20;99.90
5578;DHT22;2811;51.900;10.734;2022-10-30T15:13:51;19.80;99.90
5578;DHT22;2811;51.900;10.734;2022-10-30T15:16:20;19.70;99.90
5578;DHT22;2811;51.900;10.734;2022-10-30T15:21:22;19.40;99.90
5578;DHT22;2811;51.900;10.734;2022-10-30T15:23:54;19.30;99.90
5578;DHT22;2811;51.900;10.734;2022-10-30T15:26:30;19.20;99.90
5578;DHT22;2811;51.900;10.734;2022-10-30T15:28:58;18.90;99.90
5578;DHT22;2811;51.900;10.734;2022-10-30T15:31:28;18.90;99.90
5578;DHT22;2811;51.900;10.734;2022-10-30T15:33:55;18.80;99.90
5578;DHT22;2811;51.900;10.734;2022-10-30T15:36:24;18.70;99.90
5578;DHT22;2811;51.900;10.734;2022-10-30T15:39:08;18.60;99.90
5578;DHT22;2811;51.900;10.734;2022-10-30T15:41:41;18.50;99.90
5578;DHT22;2811;51.900;10.734;2022-10-30T15:44:10;18.30;99.90
5578;DHT22;2811;51.900;10.734;2022-10-30T15:46:37;18.20;99.90
5578;DHT22;2811;51.900;10.734;2022-10-30T15:49:04;18.10;99.90
5578;DHT22;2811;51.900;10.734;2022-10-30T15:51:33;18.10;99.90
5578;DHT22;2811;51.900;10.734;2022-10-30T15:54:01;17.90;99.90
5578;DHT22;2811;51.900;10.734;2022-10-30T15:56:31;17.60;99.90
5578;DHT22;2811;51.900;10.734;2022-10-30T15:59:02;17.40;99.90
5578;DHT22;2811;51.900;10.734;2022-10-30T16:01:30;17.30;99.90
5578;DHT22;2811;51.900;10.734;2022-10-30T16:03:58;17.20;99.90
5578;DHT22;2811;51.900;10.734;2022-10-30T16:06:26;17.10;99.90
5578;DHT22;2811;51.900;10.734;2022-10-30T16:08:53;17.10;99.90
5578;DHT22;2811;51.900;10.734;2022-10-30T16:11:20;16.90;99.90
5578;DHT22;2811;51.900;10.734;2022-10-30T16:13:48;16.80;99.90
5578;DHT22;2811;51.900;10.734;2022-10-30T16:16:21;16.80;99.90
5578;DHT22;2811;51.900;10.734;2022-10-30T16:18:48;16.70;99.90